Austin, Missouri
Current Conditions -  °F | °C
As of 11:06 PM on Friday 19 Dec 2014 (Local Time) from KOJC Reporting Station
Haze Haze  
Wind Chill: 33°   Ceiling: 200
Heat Index: 33°   Visibility: 3mi
Dew Point: 33°   Wind: 3mph
Humidity: 100%   Direction: 220°SW
Pressure: 30.2"   Gusts: NA
Location:  38.5148°N, 94.3768°W
Report Text: KOJC 200506Z AUTO 22003KT 3SM BR OVC002 01/01 A3020 RMK AO2 T00060006
Loading
Personal Weather Stations






























Interactive Weather Map New forecast layout! Learn more

10-Day Weather Forecast

Advertisements
Track Severe Weather on mobile